createdAt,value
2022-10-26T00:02:12.420Z,12.30
2022-10-26T00:04:42.230Z,12.30
2022-10-26T00:07:11.508Z,12.30
2022-10-26T00:09:41.438Z,12.20
2022-10-26T00:12:10.878Z,12.20
2022-10-26T00:14:41.152Z,12.20
2022-10-26T00:17:12.363Z,12.20
2022-10-26T00:19:42.602Z,12.20
2022-10-26T00:22:11.836Z,12.20
2022-10-26T00:24:41.340Z,12.20
2022-10-26T00:27:10.737Z,12.20
2022-10-26T00:29:40.734Z,12.20
2022-10-26T00:32:10.050Z,12.20
2022-10-26T00:34:41.740Z,12.20
2022-10-26T00:37:11.177Z,12.20
2022-10-26T00:39:40.948Z,12.20
2022-10-26T00:42:14.142Z,12.30
2022-10-26T00:45:02.774Z,12.20
2022-10-26T00:47:42.956Z,12.30
2022-10-26T00:50:18.022Z,12.30
2022-10-26T00:52:47.717Z,12.30
2022-10-26T00:55:21.749Z,12.30
2022-10-26T00:57:53.918Z,12.30
2022-10-26T01:00:24.346Z,12.30
2022-10-26T01:02:56.676Z,12.40
2022-10-26T01:05:28.672Z,12.40
2022-10-26T01:07:58.320Z,12.30
2022-10-26T01:10:29.165Z,12.30
2022-10-26T01:13:00.550Z,12.40
2022-10-26T01:15:37.474Z,12.30
2022-10-26T01:18:13.541Z,12.40
2022-10-26T01:21:12.622Z,12.40
2022-10-26T01:23:59.672Z,12.40
2022-10-26T01:27:05.956Z,12.40
2022-10-26T01:30:01.080Z,12.40
2022-10-26T01:32:37.362Z,12.30
2022-10-26T01:35:11.047Z,12.30
2022-10-26T01:37:48.405Z,12.30
2022-10-26T01:40:24.570Z,12.30
2022-10-26T01:42:56.856Z,12.30
2022-10-26T01:45:27.196Z,12.30
2022-10-26T01:47:59.637Z,12.30
2022-10-26T01:50:30.733Z,12.30
2022-10-26T01:53:00.941Z,12.30
2022-10-26T01:55:49.608Z,12.30
2022-10-26T01:58:44.852Z,12.20
2022-10-26T02:01:31.787Z,12.20
2022-10-26T02:04:12.246Z,12.20
2022-10-26T02:06:50.937Z,12.20
2022-10-26T02:09:26.673Z,12.20
2022-10-26T02:11:56.522Z,12.10
2022-10-26T02:14:32.779Z,12.20
2022-10-26T02:17:10.097Z,12.10
2022-10-26T02:19:46.259Z,12.00
2022-10-26T02:22:20.421Z,12.10
2022-10-26T02:24:54.277Z,12.00
2022-10-26T02:27:28.546Z,12.00
2022-10-26T02:30:00.054Z,11.90
2022-10-26T02:32:33.669Z,12.00
2022-10-26T02:35:06.709Z,11.90
2022-10-26T02:37:38.928Z,11.90
2022-10-26T02:40:14.206Z,11.90
2022-10-26T02:42:47.147Z,11.90
2022-10-26T02:45:20.788Z,11.90
2022-10-26T02:47:50.839Z,11.90
2022-10-26T02:50:22.760Z,11.90
2022-10-26T02:52:56.521Z,11.90
2022-10-26T02:55:30.603Z,11.90
2022-10-26T02:58:04.489Z,11.80
2022-10-26T03:00:35.064Z,11.90
2022-10-26T03:03:05.429Z,11.80
2022-10-26T03:05:37.429Z,11.80
2022-10-26T03:08:07.073Z,11.80
2022-10-26T03:10:42.079Z,11.80
2022-10-26T03:13:11.939Z,11.90
2022-10-26T03:15:41.909Z,11.80
2022-10-26T03:18:11.168Z,11.80
2022-10-26T03:20:42.176Z,11.80
2022-10-26T03:23:12.847Z,11.80
2022-10-26T03:25:42.366Z,11.70
2022-10-26T03:28:11.709Z,11.70
2022-10-26T03:30:41.693Z,11.60
2022-10-26T03:33:11.097Z,11.60
2022-10-26T03:35:42.420Z,11.60
2022-10-26T03:38:15.849Z,11.60
2022-10-26T03:40:48.752Z,11.60
2022-10-26T03:43:18.255Z,11.60
2022-10-26T03:45:48.369Z,11.50
2022-10-26T03:48:17.629Z,11.50
2022-10-26T03:50:49.104Z,11.50
2022-10-26T03:53:17.993Z,11.40
2022-10-26T03:55:47.970Z,11.40
2022-10-26T03:58:17.489Z,11.40
2022-10-26T04:00:47.510Z,11.40
2022-10-26T04:03:16.784Z,11.30
2022-10-26T04:05:48.221Z,11.30
2022-10-26T04:08:17.797Z,11.30
2022-10-26T04:10:48.145Z,11.40
2022-10-26T04:13:17.452Z,11.40
2022-10-26T04:15:47.365Z,11.30
2022-10-26T04:18:16.618Z,11.30
2022-10-26T04:20:48.001Z,11.40
2022-10-26T04:23:18.922Z,11.40
2022-10-26T04:25:48.968Z,11.40
2022-10-26T04:28:18.477Z,11.50
2022-10-26T04:30:49.765Z,11.50
2022-10-26T04:33:19.296Z,11.60
2022-10-26T04:35:50.437Z,11.60
2022-10-26T04:38:19.299Z,11.60
2022-10-26T04:40:52.367Z,11.60
2022-10-26T04:43:21.634Z,11.60
2022-10-26T04:45:51.506Z,11.70
2022-10-26T04:48:21.167Z,11.70
2022-10-26T04:50:52.218Z,11.70
2022-10-26T04:53:21.617Z,11.70
2022-10-26T04:55:51.512Z,11.70
2022-10-26T04:58:20.777Z,11.70
2022-10-26T05:00:50.908Z,11.70
2022-10-26T05:03:20.205Z,11.60
2022-10-26T05:05:50.073Z,11.70
2022-10-26T05:08:20.858Z,11.60
2022-10-26T05:10:51.373Z,11.70
2022-10-26T05:13:20.748Z,11.60
2022-10-26T05:15:51.009Z,11.60
2022-10-26T05:18:20.324Z,11.60
2022-10-26T05:20:51.080Z,11.60
2022-10-26T05:23:22.441Z,11.60
2022-10-26T05:25:52.412Z,11.60
2022-10-26T05:28:21.668Z,11.50
2022-10-26T05:30:51.571Z,11.50
2022-10-26T05:33:21.083Z,11.50
2022-10-26T05:35:50.943Z,11.40
2022-10-26T05:38:22.110Z,11.40
2022-10-26T05:40:52.422Z,11.40
2022-10-26T05:43:22.599Z,11.40
2022-10-26T05:45:52.876Z,11.30
2022-10-26T05:48:22.489Z,11.30
2022-10-26T05:50:52.236Z,11.30
2022-10-26T05:53:23.032Z,11.30
2022-10-26T05:55:53.645Z,11.30
2022-10-26T05:58:23.476Z,11.30
2022-10-26T06:01:19.029Z,11.20
2022-10-26T06:04:02.773Z,11.30
2022-10-26T06:06:39.837Z,11.30
2022-10-26T06:09:12.679Z,11.30
2022-10-26T06:11:43.270Z,11.30
2022-10-26T06:14:13.361Z,11.30
2022-10-26T06:16:58.302Z,11.30
2022-10-26T06:19:42.961Z,11.30
2022-10-26T06:22:25.370Z,11.30
2022-10-26T06:25:06.022Z,11.40
2022-10-26T06:27:45.801Z,11.40
2022-10-26T06:30:15.385Z,11.40
2022-10-26T06:32:47.800Z,11.40
2022-10-26T06:35:27.104Z,11.50
2022-10-26T06:37:58.617Z,11.50
2022-10-26T06:40:32.760Z,11.60
2022-10-26T06:43:03.119Z,11.60
2022-10-26T06:45:33.742Z,11.60
2022-10-26T06:48:06.643Z,11.60
2022-10-26T06:50:39.821Z,11.70
2022-10-26T06:53:20.985Z,11.70
2022-10-26T06:55:52.230Z,11.70
2022-10-26T06:58:24.181Z,11.80
2022-10-26T07:00:55.639Z,11.90
2022-10-26T07:03:25.214Z,12.00
2022-10-26T07:05:54.549Z,12.00
2022-10-26T07:08:24.570Z,12.10
2022-10-26T07:10:55.290Z,12.20
2022-10-26T07:13:25.325Z,12.20
2022-10-26T07:15:54.593Z,12.20
2022-10-26T07:18:24.103Z,12.30
2022-10-26T07:20:53.403Z,12.30
2022-10-26T07:23:23.987Z,12.40
2022-10-26T07:25:54.847Z,12.50
2022-10-26T07:28:24.390Z,12.50
2022-10-26T07:30:56.223Z,12.70
2022-10-26T07:33:26.028Z,12.70
2022-10-26T07:35:56.347Z,12.80
2022-10-26T07:38:26.228Z,12.80
2022-10-26T07:40:56.943Z,12.90
2022-10-26T07:43:26.866Z,12.90
2022-10-26T07:45:56.233Z,12.90
2022-10-26T07:48:26.454Z,13.00
2022-10-26T07:50:55.697Z,13.10
2022-10-26T07:53:27.896Z,13.10
2022-10-26T07:55:59.716Z,13.10
2022-10-26T07:58:29.284Z,13.10
2022-10-26T08:00:58.874Z,13.10
2022-10-26T08:03:28.558Z,13.20
2022-10-26T08:05:58.444Z,13.10
2022-10-26T08:08:28.372Z,13.20
2022-10-26T08:10:59.088Z,13.20
2022-10-26T08:13:28.867Z,13.30
2022-10-26T08:16:01.434Z,13.30
2022-10-26T08:18:31.297Z,13.40
2022-10-26T08:21:10.865Z,13.40
2022-10-26T08:23:42.528Z,13.40
2022-10-26T08:26:13.393Z,13.30
2022-10-26T08:28:43.405Z,13.40
2022-10-26T08:31:12.661Z,13.40
2022-10-26T08:33:44.926Z,13.50
2022-10-26T08:36:20.141Z,13.60
2022-10-26T08:38:50.323Z,13.60
2022-10-26T08:41:26.380Z,13.60
2022-10-26T08:44:00.765Z,13.80
2022-10-26T08:46:34.426Z,13.90
2022-10-26T08:49:10.734Z,14.00
2022-10-26T08:51:43.670Z,13.90
2022-10-26T08:54:18.605Z,13.80
2022-10-26T08:56:52.253Z,13.70
2022-10-26T08:59:31.558Z,13.80
2022-10-26T09:02:03.000Z,13.80
2022-10-26T09:04:34.452Z,13.80
2022-10-26T09:07:13.727Z,13.70
2022-10-26T09:09:54.053Z,13.60
2022-10-26T09:12:32.204Z,13.60
2022-10-26T09:15:15.423Z,13.60
2022-10-26T09:17:51.441Z,13.50
2022-10-26T09:20:44.648Z,13.60
2022-10-26T09:23:29.897Z,13.60
2022-10-26T09:26:02.101Z,13.80
2022-10-26T09:28:36.814Z,13.80
2022-10-26T09:31:07.230Z,13.90
2022-10-26T09:33:41.302Z,14.00
2022-10-26T09:36:16.798Z,14.10
2022-10-26T09:38:53.149Z,14.20
2022-10-26T09:41:31.805Z,14.30
2022-10-26T09:44:09.254Z,14.50
2022-10-26T09:46:48.308Z,14.50
2022-10-26T09:49:19.702Z,14.50
2022-10-26T09:51:51.366Z,14.50
2022-10-26T09:54:23.041Z,14.50
2022-10-26T09:56:55.075Z,14.50
2022-10-26T09:59:27.815Z,14.50
2022-10-26T10:01:57.679Z,14.50
2022-10-26T10:04:27.390Z,14.60
2022-10-26T10:07:15.168Z,14.60
2022-10-26T10:09:44.531Z,14.70
2022-10-26T10:12:22.720Z,14.80
2022-10-26T10:15:00.793Z,14.80
2022-10-26T10:17:30.850Z,14.80
2022-10-26T10:20:13.222Z,14.70
2022-10-26T10:22:58.923Z,14.70
2022-10-26T10:25:36.490Z,14.70
2022-10-26T10:28:22.086Z,14.80
2022-10-26T10:30:59.648Z,14.90
2022-10-26T10:33:37.721Z,15.00
2022-10-26T10:36:15.153Z,15.40
2022-10-26T10:38:46.810Z,15.90
2022-10-26T10:41:23.413Z,16.50
2022-10-26T10:43:56.982Z,17.20
2022-10-26T10:46:29.613Z,17.10
2022-10-26T10:49:05.271Z,17.00
2022-10-26T10:51:40.258Z,17.40
2022-10-26T10:54:24.657Z,17.60
2022-10-26T10:56:57.117Z,17.40
2022-10-26T10:59:49.782Z,17.80
2022-10-26T11:02:55.677Z,17.90
2022-10-26T11:05:35.518Z,17.40
2022-10-26T11:08:09.852Z,17.50
2022-10-26T11:10:43.455Z,17.30
2022-10-26T11:13:21.868Z,16.80
2022-10-26T11:16:05.998Z,16.60
2022-10-26T11:18:40.683Z,16.30
2022-10-26T11:21:21.375Z,16.30
2022-10-26T11:23:54.568Z,16.20
2022-10-26T11:26:30.420Z,16.30
2022-10-26T11:29:03.802Z,16.40
2022-10-26T11:31:40.295Z,16.30
2022-10-26T11:34:28.196Z,16.00
2022-10-26T11:37:05.203Z,15.70
2022-10-26T11:39:44.008Z,15.60
2022-10-26T11:42:25.423Z,15.60
2022-10-26T11:45:01.210Z,15.60
2022-10-26T11:47:40.179Z,15.50
2022-10-26T11:50:18.896Z,15.50
2022-10-26T11:52:53.266Z,15.40
2022-10-26T11:55:24.030Z,15.40
2022-10-26T11:57:56.004Z,15.30
2022-10-26T12:00:25.892Z,15.30
2022-10-26T12:02:59.987Z,15.20
2022-10-26T12:05:44.658Z,15.00
2022-10-26T12:08:30.098Z,14.80
2022-10-26T12:13:44.623Z,14.60
2022-10-26T12:16:22.253Z,14.80
2022-10-26T12:18:56.645Z,14.80
2022-10-26T12:21:31.066Z,14.90
2022-10-26T12:24:02.098Z,14.90
2022-10-26T12:26:48.904Z,14.90
2022-10-26T12:29:41.305Z,14.90
2022-10-26T12:32:53.178Z,14.90
2022-10-26T12:35:37.515Z,14.90
2022-10-26T12:38:55.966Z,15.00
2022-10-26T12:41:29.553Z,15.60
2022-10-26T12:44:02.721Z,16.50
2022-10-26T12:46:43.994Z,16.60
2022-10-26T12:49:58.681Z,17.10
2022-10-26T12:52:41.189Z,17.80
2022-10-26T12:55:49.923Z,18.10
2022-10-26T12:58:54.836Z,18.40
2022-10-26T13:01:53.191Z,18.70
2022-10-26T13:04:51.952Z,18.90
2022-10-26T13:07:24.376Z,18.70
2022-10-26T13:10:04.784Z,18.30
2022-10-26T13:12:47.074Z,18.10
2022-10-26T13:15:26.196Z,17.50
2022-10-26T13:18:03.728Z,17.70
2022-10-26T13:20:34.761Z,17.10
2022-10-26T13:23:04.352Z,16.70
2022-10-26T13:25:34.160Z,16.00
2022-10-26T13:28:07.133Z,15.70
2022-10-26T13:30:48.591Z,15.40
2022-10-26T13:33:34.200Z,15.20
2022-10-26T13:36:20.012Z,15.00
2022-10-26T13:38:49.944Z,15.00
2022-10-26T13:41:28.649Z,15.00
2022-10-26T13:44:00.341Z,14.90
2022-10-26T13:46:31.231Z,15.00
2022-10-26T13:49:11.293Z,14.90
2022-10-26T13:51:44.783Z,14.80
2022-10-26T13:54:26.721Z,14.70
2022-10-26T13:57:15.214Z,14.60
2022-10-26T13:59:47.272Z,14.60
2022-10-26T14:02:24.346Z,14.50
2022-10-26T14:05:03.006Z,14.50
2022-10-26T14:07:38.517Z,14.60
2022-10-26T14:10:08.206Z,14.60
2022-10-26T14:12:39.767Z,14.60
2022-10-26T14:15:10.695Z,14.60
2022-10-26T14:17:40.705Z,14.60
2022-10-26T14:20:20.313Z,14.50
2022-10-26T14:22:50.122Z,14.50
2022-10-26T14:25:30.978Z,14.50
2022-10-26T14:28:24.123Z,14.50
2022-10-26T14:30:53.847Z,14.40
2022-10-26T14:33:29.064Z,14.30
2022-10-26T14:36:00.161Z,14.30
2022-10-26T14:38:37.009Z,14.30
2022-10-26T14:41:06.572Z,14.20
2022-10-26T14:43:36.489Z,14.20
2022-10-26T14:46:05.767Z,14.30
2022-10-26T14:48:37.273Z,14.20
2022-10-26T14:51:11.063Z,14.20
2022-10-26T14:53:42.738Z,14.20
2022-10-26T14:56:24.991Z,14.20
2022-10-26T14:58:56.101Z,14.20
2022-10-26T15:01:49.728Z,14.20
2022-10-26T15:04:41.414Z,14.20
2022-10-26T15:07:16.976Z,14.20
2022-10-26T15:09:48.174Z,14.10
2022-10-26T15:12:24.065Z,14.10
2022-10-26T15:14:55.060Z,14.20
2022-10-26T15:17:32.306Z,14.10
2022-10-26T15:20:06.672Z,14.10
2022-10-26T15:22:37.591Z,14.10
2022-10-26T15:25:08.622Z,14.00
2022-10-26T15:27:38.149Z,14.10
2022-10-26T15:30:20.145Z,14.00
2022-10-26T15:32:49.748Z,14.10
2022-10-26T15:35:32.001Z,14.10
2022-10-26T15:38:02.857Z,14.00
2022-10-26T15:40:33.631Z,14.00
2022-10-26T15:43:03.425Z,14.00
2022-10-26T15:45:35.689Z,13.90
2022-10-26T15:48:21.772Z,14.00
2022-10-26T15:50:51.619Z,14.00
2022-10-26T15:53:23.821Z,13.90
2022-10-26T15:55:55.686Z,14.00
2022-10-26T15:58:27.076Z,13.90
2022-10-26T16:00:57.060Z,13.90
2022-10-26T16:03:27.926Z,13.90
2022-10-26T16:06:00.816Z,13.70
2022-10-26T16:08:32.953Z,13.70
2022-10-26T16:11:02.817Z,13.60
2022-10-26T16:13:32.193Z,13.50
2022-10-26T16:16:02.634Z,13.60
2022-10-26T16:18:32.566Z,13.60
2022-10-26T16:21:02.450Z,13.50
2022-10-26T16:23:33.389Z,13.50
2022-10-26T16:26:06.209Z,13.50
2022-10-26T16:28:36.212Z,13.40
2022-10-26T16:31:07.175Z,13.50
2022-10-26T16:33:39.081Z,13.50
2022-10-26T16:36:10.448Z,13.40
2022-10-26T16:38:40.861Z,13.30
2022-10-26T16:41:10.994Z,13.30
2022-10-26T16:43:42.051Z,13.20
2022-10-26T16:46:14.244Z,13.20
2022-10-26T16:48:45.152Z,13.10
2022-10-26T16:51:16.948Z,13.10
2022-10-26T16:53:49.405Z,13.00
2022-10-26T16:56:22.028Z,13.00
2022-10-26T16:58:51.666Z,13.00
2022-10-26T17:01:23.253Z,13.00
2022-10-26T17:03:54.032Z,12.90
2022-10-26T17:06:24.770Z,12.90
2022-10-26T17:08:55.673Z,12.90
2022-10-26T17:11:25.652Z,12.90
2022-10-26T17:13:56.197Z,12.80
2022-10-26T17:16:26.827Z,12.80
2022-10-26T17:18:56.288Z,12.80
2022-10-26T17:21:31.167Z,12.70
2022-10-26T17:24:02.088Z,12.60
2022-10-26T17:26:31.756Z,12.50
2022-10-26T17:29:01.192Z,12.50
2022-10-26T17:31:31.678Z,12.40
2022-10-26T17:34:01.750Z,12.40
2022-10-26T17:36:32.005Z,12.40
2022-10-26T17:39:03.730Z,12.50
2022-10-26T17:41:33.378Z,12.50
2022-10-26T17:44:03.118Z,12.50
2022-10-26T17:46:33.185Z,12.30
2022-10-26T17:49:03.018Z,12.20
2022-10-26T17:51:33.073Z,12.00
2022-10-26T17:54:03.928Z,11.90
2022-10-26T17:56:35.849Z,11.80
2022-10-26T17:59:08.464Z,11.70
2022-10-26T18:01:38.683Z,11.60
2022-10-26T18:04:08.362Z,11.50
2022-10-26T18:06:38.290Z,11.40
2022-10-26T18:09:12.314Z,11.50
2022-10-26T18:11:41.966Z,11.50
2022-10-26T18:14:12.147Z,11.50
2022-10-26T18:16:42.674Z,11.50
2022-10-26T18:19:12.439Z,11.50
2022-10-26T18:21:42.195Z,11.50
2022-10-26T18:24:13.327Z,11.50
2022-10-26T18:26:43.336Z,11.50
2022-10-26T18:29:14.755Z,11.50
2022-10-26T18:31:46.655Z,11.40
2022-10-26T18:34:15.932Z,11.40
2022-10-26T18:36:45.609Z,11.20
2022-10-26T18:39:16.656Z,11.20
2022-10-26T18:41:46.989Z,11.00
2022-10-26T18:44:19.658Z,11.00
2022-10-26T18:46:52.252Z,11.00
2022-10-26T18:49:22.123Z,10.90
2022-10-26T18:51:52.096Z,10.90
2022-10-26T18:54:22.972Z,10.90
2022-10-26T18:56:52.881Z,10.90
2022-10-26T18:59:22.108Z,10.90
2022-10-26T19:01:52.757Z,11.00
2022-10-26T19:04:23.321Z,11.00
2022-10-26T19:06:53.443Z,11.10
2022-10-26T19:09:25.797Z,11.00
2022-10-26T19:11:57.964Z,11.00
2022-10-26T19:14:29.379Z,10.90
2022-10-26T19:16:59.237Z,10.80
2022-10-26T19:19:30.817Z,10.80
2022-10-26T19:22:01.325Z,10.80
2022-10-26T19:24:32.161Z,10.70
2022-10-26T19:27:02.111Z,10.70
2022-10-26T19:29:31.578Z,10.70
2022-10-26T19:32:03.122Z,10.70
2022-10-26T19:34:32.793Z,10.70
2022-10-26T19:37:04.187Z,10.60
2022-10-26T19:39:35.093Z,10.70
2022-10-26T19:42:07.446Z,10.60
2022-10-26T19:44:36.743Z,10.60
2022-10-26T19:47:06.945Z,10.60
2022-10-26T19:49:36.344Z,10.60
2022-10-26T19:52:06.198Z,10.70
2022-10-26T19:54:36.978Z,10.70
2022-10-26T19:57:06.857Z,10.70
2022-10-26T19:59:36.218Z,10.60
2022-10-26T20:02:06.130Z,10.60
2022-10-26T20:04:35.398Z,10.60
2022-10-26T20:07:05.335Z,10.60
2022-10-26T20:09:36.094Z,10.50
2022-10-26T20:12:06.478Z,10.40
2022-10-26T20:14:35.753Z,10.50
2022-10-26T20:17:06.079Z,10.40
2022-10-26T20:19:35.403Z,10.30
2022-10-26T20:22:05.062Z,10.30
2022-10-26T20:24:36.022Z,10.30
2022-10-26T20:27:06.830Z,10.20
2022-10-26T20:29:36.559Z,10.20
2022-10-26T20:32:07.099Z,10.20
2022-10-26T20:34:36.819Z,10.20
2022-10-26T20:37:06.825Z,10.10
2022-10-26T20:39:38.476Z,10.10
2022-10-26T20:42:08.866Z,10.00
2022-10-26T20:44:44.643Z,9.90
2022-10-26T20:47:15.090Z,9.90
2022-10-26T20:49:45.161Z,9.90
2022-10-26T20:52:21.576Z,9.90
2022-10-26T20:54:57.857Z,9.90
2022-10-26T20:57:32.211Z,9.90
2022-10-26T21:00:05.886Z,9.90
2022-10-26T21:02:35.681Z,10.00
2022-10-26T21:05:05.286Z,10.10
2022-10-26T21:07:35.458Z,10.10
2022-10-26T21:10:07.037Z,10.10
2022-10-26T21:12:37.898Z,10.10
2022-10-26T21:15:08.552Z,10.20
2022-10-26T21:17:38.931Z,10.10
2022-10-26T21:20:09.227Z,10.10
2022-10-26T21:22:38.725Z,10.10
2022-10-26T21:25:10.599Z,10.10
2022-10-26T21:27:40.129Z,10.00
2022-10-26T21:30:11.166Z,10.10
2022-10-26T21:32:40.730Z,10.00
2022-10-26T21:35:10.477Z,10.00
2022-10-26T21:37:40.407Z,10.00
2022-10-26T21:40:13.018Z,10.00
2022-10-26T21:42:42.989Z,10.00
2022-10-26T21:45:12.533Z,10.00
2022-10-26T21:47:42.400Z,9.90
2022-10-26T21:50:12.269Z,9.90
2022-10-26T21:52:41.807Z,9.90
2022-10-26T21:55:13.913Z,9.90
2022-10-26T21:57:44.397Z,9.90
2022-10-26T22:00:15.113Z,9.90
2022-10-26T22:02:45.182Z,9.90
2022-10-26T22:05:14.809Z,9.90
2022-10-26T22:07:44.804Z,9.90
2022-10-26T22:10:15.564Z,9.90
2022-10-26T22:12:45.574Z,9.90
2022-10-26T22:15:14.979Z,9.90
2022-10-26T22:17:44.649Z,9.90
2022-10-26T22:20:14.403Z,9.90
2022-10-26T22:22:44.346Z,10.00
2022-10-26T22:25:15.118Z,10.00
2022-10-26T22:27:45.225Z,10.00
2022-10-26T22:30:15.101Z,10.00
2022-10-26T22:32:45.141Z,10.00
2022-10-26T22:35:30.173Z,10.00
2022-10-26T22:38:00.101Z,10.00
2022-10-26T22:40:30.902Z,10.00
2022-10-26T22:43:00.762Z,10.00
2022-10-26T22:45:30.132Z,9.90
2022-10-26T22:48:00.019Z,10.00
2022-10-26T22:50:29.457Z,10.00
2022-10-26T22:52:59.658Z,10.00
2022-10-26T22:55:30.474Z,10.00
2022-10-26T22:58:00.565Z,10.00
2022-10-26T23:00:29.816Z,10.00
2022-10-26T23:02:59.798Z,10.00
2022-10-26T23:05:29.162Z,10.00
2022-10-26T23:07:59.181Z,10.00
2022-10-26T23:10:30.117Z,10.00
2022-10-26T23:13:00.290Z,10.00
2022-10-26T23:15:29.533Z,10.00
2022-10-26T23:17:59.053Z,10.00
2022-10-26T23:20:28.379Z,10.00
2022-10-26T23:22:57.901Z,10.10
2022-10-26T23:25:27.360Z,10.10
2022-10-26T23:27:58.704Z,10.10
2022-10-26T23:30:28.075Z,10.10
2022-10-26T23:32:57.809Z,10.10
2022-10-26T23:35:27.211Z,10.10
2022-10-26T23:37:59.350Z,10.20
2022-10-26T23:40:29.148Z,10.20
2022-10-26T23:43:00.776Z,10.20
2022-10-26T23:45:30.001Z,10.20
2022-10-26T23:47:59.849Z,10.20
2022-10-26T23:50:29.201Z,10.30
2022-10-26T23:52:59.050Z,10.30
2022-10-26T23:55:28.282Z,10.30
2022-10-26T23:57:59.696Z,10.30
